KSKF/SKF METAR and TAF weather

Enter ICAO airport designator
Station Type Date Time Source
KSKF METAR 2022/05/26 03:56 UTC NOAA

KSKF 260356Z AUTO 10003KT 10SM CLR 19/12 A2994 RMK AO2 SLP134 T01910124 $


Station Type Date Time Source
KSKF Decoded METAR 2022/05/26 03:56 UTC NOAA

Kelly Air Force Base, TX, United States (KSKF) 29-23N 098-35W
May 25, 2022 - 11:56 PM EDT / 2022.05.26 0356 UTC
Wind: from the E (100 degrees) at 3 MPH (3 KT):0
Visibility: 10 mile(s):0
Sky conditions: clear
Temperature: 66.4 F (19.1 C)
Dew Point: 54.3 F (12.4 C)
Relative Humidity: 65%
Pressure (altimeter): 29.94 in. Hg (1013 hPa)
ob: KSKF 260356Z AUTO 10003KT 10SM CLR 19/12 A2994 RMK AO2 SLP134 T01910124
cycle: 4

Station Type Date Time Source
KSKF TAF 2022/05/26 02:17 UTC NOAA

TAF KSKF 260200Z 2602/2708 05006KT 9999 SKC QNH2995INS
BECMG 2614/2615 23009KT 9999 FEW020 QNH2993INS
BECMG 2623/2624 18003KT 9999 SKC QNH2990INS TX33/2621Z TN15/2611Z

Example: see airport list